createdAt,value
2019-05-06T00:01:34.304Z,100486.41
2019-05-06T00:04:04.851Z,100486.77
2019-05-06T00:06:34.774Z,100490.23
2019-05-06T00:09:05.254Z,100484.91
2019-05-06T00:11:36.689Z,100485.72
2019-05-06T00:14:06.048Z,100486.04
2019-05-06T00:16:35.166Z,100495.39
2019-05-06T00:19:05.030Z,100491.23
2019-05-06T00:21:35.525Z,100489.75
2019-05-06T00:24:05.388Z,100489.70
2019-05-06T00:26:57.219Z,100489.42
2019-05-06T00:29:27.184Z,100480.44
2019-05-06T00:31:56.223Z,100488.42
2019-05-06T00:34:25.434Z,100485.92
2019-05-06T00:36:54.674Z,100489.42
2019-05-06T00:39:30.326Z,100487.27
2019-05-06T00:42:04.844Z,100491.41
2019-05-06T00:44:34.645Z,100490.44
2019-05-06T00:47:04.392Z,100497.90
2019-05-06T00:49:34.455Z,100499.06
2019-05-06T00:52:04.287Z,100499.23
2019-05-06T00:54:34.150Z,100506.72
2019-05-06T00:57:05.313Z,100496.04
2019-05-06T00:59:34.691Z,100497.20
2019-05-06T01:02:04.648Z,100494.85
2019-05-06T01:04:34.060Z,100493.17
2019-05-06T01:07:03.985Z,100491.36
2019-05-06T01:09:34.506Z,100502.30
2019-05-06T01:12:05.191Z,100496.34
2019-05-06T01:14:38.968Z,100501.45
2019-05-06T01:17:08.233Z,100499.33
2019-05-06T01:19:37.379Z,100503.69
2019-05-06T01:22:06.590Z,100502.72
2019-05-06T01:24:35.913Z,100507.52
2019-05-06T01:27:05.047Z,100511.63
2019-05-06T01:29:34.887Z,100507.63
2019-05-06T01:32:04.107Z,100510.98
2019-05-06T01:34:33.897Z,100514.95
2019-05-06T01:37:03.757Z,100517.30
2019-05-06T01:39:53.716Z,100517.41
2019-05-06T01:42:34.446Z,100518.73
2019-05-06T01:45:04.731Z,100522.56
2019-05-06T01:47:34.577Z,100522.77
2019-05-06T01:50:04.656Z,100521.27
2019-05-06T01:52:34.462Z,100519.11
2019-05-06T01:55:04.811Z,100522.61
2019-05-06T01:57:33.988Z,100518.89
2019-05-06T02:00:04.836Z,100527.23
2019-05-06T02:02:34.503Z,100523.56
2019-05-06T02:05:04.748Z,100522.19
2019-05-06T02:07:34.919Z,100519.73
2019-05-06T02:10:04.304Z,100528.55
2019-05-06T02:12:34.245Z,100533.02
2019-05-06T02:15:05.240Z,100530.70
2019-05-06T02:17:34.610Z,100535.83
2019-05-06T02:20:04.261Z,100527.02
2019-05-06T02:22:58.197Z,100527.39
2019-05-06T02:25:53.981Z,100528.04
2019-05-06T02:28:23.625Z,100533.36
2019-05-06T02:31:21.321Z,100534.20
2019-05-06T02:34:09.536Z,100529.20
2019-05-06T02:36:58.824Z,100531.22
2019-05-06T02:39:28.137Z,100532.70
2019-05-06T02:41:57.343Z,100536.02
2019-05-06T02:44:26.871Z,100530.67
2019-05-06T02:47:04.950Z,100530.67
2019-05-06T02:49:38.787Z,100530.83
2019-05-06T02:52:07.889Z,100536.16
2019-05-06T02:54:37.109Z,100536.16
2019-05-06T02:57:06.302Z,100532.50
2019-05-06T02:59:35.706Z,100531.84
2019-05-06T03:02:04.899Z,100536.48
2019-05-06T03:04:34.021Z,100533.29
2019-05-06T03:07:03.840Z,100537.66
2019-05-06T03:09:34.116Z,100541.94
2019-05-06T03:12:04.033Z,100540.14
2019-05-06T03:14:34.541Z,100537.78
2019-05-06T03:17:04.098Z,100539.94
2019-05-06T03:19:34.968Z,100535.46
2019-05-06T03:22:17.758Z,100535.00
2019-05-06T03:25:06.327Z,100542.82
2019-05-06T03:27:32.959Z,100538.05
2019-05-06T03:30:04.108Z,100541.70
2019-05-06T03:32:41.138Z,100535.05
2019-05-06T03:35:25.271Z,100536.40
2019-05-06T03:37:35.485Z,100542.20
2019-05-06T03:40:04.922Z,100544.20
2019-05-06T03:42:34.302Z,100546.53
2019-05-06T03:45:09.368Z,100543.19
2019-05-06T03:47:46.417Z,100545.64
2019-05-06T03:50:15.795Z,100546.16
2019-05-06T03:52:44.921Z,100547.03
2019-05-06T03:55:14.102Z,100547.89
2019-05-06T03:57:43.188Z,100550.91
2019-05-06T04:00:16.103Z,100548.89
2019-05-06T04:02:45.624Z,100554.16
2019-05-06T04:05:14.904Z,100549.69
2019-05-06T04:07:45.969Z,100557.64
2019-05-06T04:10:15.606Z,100559.14
2019-05-06T04:12:45.668Z,100560.31
2019-05-06T04:15:15.510Z,100553.84
2019-05-06T04:18:04.063Z,100555.84
2019-05-06T04:20:53.323Z,100556.47
2019-05-06T04:23:43.486Z,100559.16
2019-05-06T04:26:16.426Z,100562.81
2019-05-06T04:28:45.673Z,100563.14
2019-05-06T04:31:14.819Z,100565.64
2019-05-06T04:33:55.430Z,100563.68
2019-05-06T04:36:14.700Z,100565.17
2019-05-06T04:38:44.963Z,100577.51
2019-05-06T04:41:14.530Z,100578.52
2019-05-06T04:43:44.049Z,100579.00
2019-05-06T04:46:16.819Z,100580.72
2019-05-06T04:48:44.902Z,100584.72
2019-05-06T04:51:14.144Z,100579.23
2019-05-06T04:53:44.250Z,100585.08
2019-05-06T04:56:14.618Z,100588.25
2019-05-06T04:58:43.828Z,100592.44
2019-05-06T05:01:15.688Z,100591.95
2019-05-06T05:03:43.875Z,100591.44
2019-05-06T05:06:13.644Z,100591.80
2019-05-06T05:08:42.851Z,100597.48
2019-05-06T05:11:30.003Z,100599.67
2019-05-06T05:14:25.039Z,100608.53
2019-05-06T05:17:06.229Z,100603.73
2019-05-06T05:19:35.249Z,100609.91
2019-05-06T05:22:07.386Z,100616.44
2019-05-06T05:24:37.254Z,100615.09
2019-05-06T05:27:07.534Z,100619.77
2019-05-06T05:29:36.829Z,100620.94
2019-05-06T05:32:06.083Z,100627.76
2019-05-06T05:34:39.764Z,100624.11
2019-05-06T05:37:06.388Z,100627.27
2019-05-06T05:39:35.587Z,100630.45
2019-05-06T05:42:14.211Z,100635.78
2019-05-06T05:44:43.733Z,100640.13
2019-05-06T05:47:12.997Z,100638.11
2019-05-06T05:50:02.763Z,100642.11
2019-05-06T05:52:32.870Z,100648.11
2019-05-06T05:55:04.427Z,100643.78
2019-05-06T05:57:34.145Z,100640.30
2019-05-06T06:00:04.096Z,100643.80
2019-05-06T06:02:33.702Z,100651.11
2019-05-06T06:05:02.823Z,100644.76
2019-05-06T06:07:32.776Z,100648.09
2019-05-06T06:10:30.457Z,100651.91
2019-05-06T06:13:02.162Z,100654.23
2019-05-06T06:15:42.444Z,100656.41
2019-05-06T06:18:28.707Z,100653.05
2019-05-06T06:21:27.897Z,100651.70
2019-05-06T06:23:57.399Z,100654.70
2019-05-06T06:26:26.543Z,100644.84
2019-05-06T06:28:55.628Z,100655.66
2019-05-06T06:31:33.996Z,100647.40
2019-05-06T06:34:09.950Z,100650.87
2019-05-06T06:36:48.776Z,100651.39
2019-05-06T06:39:39.647Z,100652.20
2019-05-06T06:42:08.739Z,100650.15
2019-05-06T06:44:37.817Z,100649.11
2019-05-06T06:47:06.824Z,100650.55
2019-05-06T06:49:36.201Z,100651.05
2019-05-06T06:52:10.954Z,100651.02
2019-05-06T06:54:36.106Z,100654.15
2019-05-06T06:57:24.176Z,100654.25
2019-05-06T07:00:03.924Z,100649.08
2019-05-06T07:02:48.204Z,100652.88
2019-05-06T07:05:35.221Z,100644.64
2019-05-06T07:08:04.553Z,100652.22
2019-05-06T07:10:46.848Z,100655.16
2019-05-06T07:13:17.178Z,100655.30
2019-05-06T07:15:46.366Z,100656.90
2019-05-06T07:18:15.490Z,100652.88
2019-05-06T07:20:58.438Z,100654.95
2019-05-06T07:23:28.018Z,100657.57
2019-05-06T07:25:57.107Z,100663.19
2019-05-06T07:28:26.548Z,100667.45
2019-05-06T07:30:56.191Z,100666.09
2019-05-06T07:33:25.506Z,100661.11
2019-05-06T07:35:54.688Z,100666.12
2019-05-06T07:38:23.943Z,100665.80
2019-05-06T07:41:06.240Z,100666.88
2019-05-06T07:43:48.672Z,100664.02
2019-05-06T07:46:37.547Z,100671.21
2019-05-06T07:49:06.593Z,100674.53
2019-05-06T07:51:35.887Z,100676.10
2019-05-06T07:54:05.118Z,100674.80
2019-05-06T07:56:34.228Z,100671.02
2019-05-06T07:59:07.718Z,100669.02
2019-05-06T08:01:38.651Z,100671.89
2019-05-06T08:04:08.133Z,100673.39
2019-05-06T08:06:37.213Z,100678.56
2019-05-06T08:09:08.793Z,100680.09
2019-05-06T08:11:37.993Z,100674.30
2019-05-06T08:14:07.687Z,100673.72
2019-05-06T08:16:42.486Z,100668.81
2019-05-06T08:19:12.069Z,100669.39
2019-05-06T08:21:42.884Z,100671.84
2019-05-06T08:24:12.081Z,100669.30
2019-05-06T08:26:42.821Z,100671.92
2019-05-06T08:29:15.502Z,100671.99
2019-05-06T08:31:43.204Z,100664.09
2019-05-06T08:34:12.415Z,100662.35
2019-05-06T08:36:57.656Z,100666.69
2019-05-06T08:39:26.699Z,100668.77
2019-05-06T08:41:55.768Z,100664.25
2019-05-06T08:44:24.860Z,100666.24
2019-05-06T08:46:53.969Z,100664.05
2019-05-06T08:49:23.073Z,100664.80
2019-05-06T08:51:59.028Z,100659.06
2019-05-06T08:54:34.184Z,100658.64
2019-05-06T08:57:03.495Z,100661.72
2019-05-06T08:59:32.600Z,100660.80
2019-05-06T09:02:03.214Z,100656.88
2019-05-06T09:04:32.397Z,100659.99
2019-05-06T09:07:02.914Z,100661.07
2019-05-06T09:09:32.773Z,100657.93
2019-05-06T09:12:02.633Z,100661.19
2019-05-06T09:14:32.660Z,100658.25
2019-05-06T09:17:02.810Z,100656.89
2019-05-06T09:19:33.129Z,100652.88
2019-05-06T09:22:02.671Z,100650.55
2019-05-06T09:24:32.235Z,100649.33
2019-05-06T09:27:12.456Z,100650.21
2019-05-06T09:29:52.121Z,100649.51
2019-05-06T09:32:35.925Z,100647.02
2019-05-06T09:35:06.482Z,100644.31
2019-05-06T09:37:35.728Z,100652.77
2019-05-06T09:40:05.374Z,100655.40
2019-05-06T09:42:34.584Z,100653.83
2019-05-06T09:45:03.808Z,100651.95
2019-05-06T09:47:43.125Z,100652.70
2019-05-06T09:50:15.165Z,100653.41
2019-05-06T09:52:44.249Z,100651.16
2019-05-06T09:55:44.756Z,100654.00
2019-05-06T09:58:13.837Z,100651.21
2019-05-06T10:00:45.470Z,100641.85
2019-05-06T10:03:14.879Z,100641.38
2019-05-06T10:05:44.027Z,100646.77
2019-05-06T10:08:13.270Z,100637.14
2019-05-06T10:10:56.023Z,100644.03
2019-05-06T10:13:13.657Z,100645.84
2019-05-06T10:15:43.041Z,100641.07
2019-05-06T10:18:13.126Z,100645.29
2019-05-06T10:20:45.237Z,100644.30
2019-05-06T10:23:15.405Z,100642.84
2019-05-06T10:25:45.730Z,100645.38
2019-05-06T10:28:44.621Z,100650.20
2019-05-06T10:31:15.943Z,100644.37
2019-05-06T10:34:03.182Z,100646.58
2019-05-06T10:36:45.184Z,100632.30
2019-05-06T10:39:15.622Z,100640.82
2019-05-06T10:41:47.353Z,100637.13
2019-05-06T10:44:42.873Z,100638.12
2019-05-06T10:47:12.254Z,100635.40
2019-05-06T10:49:42.051Z,100626.13
2019-05-06T10:52:17.560Z,100634.85
2019-05-06T10:54:46.657Z,100633.00
2019-05-06T10:57:29.727Z,100637.44
2019-05-06T10:59:58.881Z,100640.23
2019-05-06T11:02:56.254Z,100628.42
2019-05-06T11:05:25.417Z,100637.43
2019-05-06T11:07:54.615Z,100637.84
2019-05-06T11:10:29.916Z,100629.91
2019-05-06T11:12:54.685Z,100628.73
2019-05-06T11:15:23.825Z,100622.94
2019-05-06T11:17:52.871Z,100619.00
2019-05-06T11:20:24.189Z,100611.90
2019-05-06T11:22:52.955Z,100620.80
2019-05-06T11:25:23.054Z,100623.48
2019-05-06T11:27:52.868Z,100619.53
2019-05-06T11:30:42.376Z,100617.53
2019-05-06T11:33:28.904Z,100613.73
2019-05-06T11:36:01.003Z,100616.46
2019-05-06T11:38:32.128Z,100618.23
2019-05-06T11:41:00.964Z,100617.45
2019-05-06T11:43:32.563Z,100617.57
2019-05-06T11:46:01.891Z,100612.94
2019-05-06T11:48:32.816Z,100617.52
2019-05-06T11:51:03.945Z,100612.44
2019-05-06T11:53:33.623Z,100604.30
2019-05-06T11:56:02.698Z,100603.88
2019-05-06T11:58:53.141Z,100602.62
2019-05-06T12:01:44.261Z,100604.72
2019-05-06T12:04:13.874Z,100608.42
2019-05-06T12:06:43.356Z,100610.79
2019-05-06T12:09:16.516Z,100615.30
2019-05-06T12:11:43.447Z,100603.25
2019-05-06T12:14:13.091Z,100601.22
2019-05-06T12:16:42.161Z,100598.02
2019-05-06T12:19:13.104Z,100606.61
2019-05-06T12:21:43.075Z,100604.68
2019-05-06T12:24:12.358Z,100606.02
2019-05-06T12:26:42.857Z,100610.72
2019-05-06T12:29:12.696Z,100602.94
2019-05-06T12:31:42.499Z,100606.87
2019-05-06T12:34:14.504Z,100601.47
2019-05-06T12:36:42.887Z,100601.44
2019-05-06T12:39:26.138Z,100598.05
2019-05-06T12:42:14.306Z,100600.86
2019-05-06T12:45:03.534Z,100599.02
2019-05-06T12:47:54.779Z,100598.95
2019-05-06T12:50:23.957Z,100587.88
2019-05-06T12:52:53.326Z,100598.67
2019-05-06T12:55:25.315Z,100599.85
2019-05-06T12:57:54.601Z,100598.25
2019-05-06T13:00:24.801Z,100596.41
2019-05-06T13:02:53.913Z,100595.67
2019-05-06T13:05:23.301Z,100603.25
2019-05-06T13:07:52.832Z,100592.25
2019-05-06T13:10:23.300Z,100588.75
2019-05-06T13:12:57.961Z,100576.97
2019-05-06T13:15:27.049Z,100581.62
2019-05-06T13:17:56.128Z,100585.13
2019-05-06T13:20:25.477Z,100577.84
2019-05-06T13:23:08.595Z,100572.53
2019-05-06T13:25:35.690Z,100578.59
2019-05-06T13:28:06.617Z,100573.99
2019-05-06T13:30:35.867Z,100577.47
2019-05-06T13:33:14.075Z,100573.72
2019-05-06T13:35:43.276Z,100580.24
2019-05-06T13:38:12.564Z,100579.07
2019-05-06T13:40:54.062Z,100578.84
2019-05-06T13:43:43.358Z,100584.52
2019-05-06T13:46:18.115Z,100587.45
2019-05-06T13:48:57.433Z,100583.38
2019-05-06T13:51:28.225Z,100584.48
2019-05-06T13:53:57.505Z,100587.80
2019-05-06T13:56:26.606Z,100576.58
2019-05-06T13:58:55.894Z,100576.47
2019-05-06T14:01:26.893Z,100575.80
2019-05-06T14:03:56.122Z,100578.66
2019-05-06T14:06:25.414Z,100579.50
2019-05-06T14:08:54.669Z,100581.27
2019-05-06T14:11:23.936Z,100581.63
2019-05-06T14:13:53.184Z,100576.91
2019-05-06T14:16:24.495Z,100577.55
2019-05-06T14:18:53.506Z,100584.79
2019-05-06T14:21:23.040Z,100583.11
2019-05-06T14:23:52.062Z,100586.08
2019-05-06T14:26:27.414Z,100576.16
2019-05-06T14:29:02.384Z,100575.30
2019-05-06T14:31:37.913Z,100576.17
2019-05-06T14:34:07.378Z,100563.82
2019-05-06T14:36:36.603Z,100566.84
2019-05-06T14:39:12.702Z,100562.73
2019-05-06T14:41:44.827Z,100567.91
2019-05-06T14:44:14.379Z,100562.05
2019-05-06T14:47:03.928Z,100566.80
2019-05-06T14:49:33.114Z,100565.41
2019-05-06T14:52:02.843Z,100563.38
2019-05-06T14:54:33.242Z,100560.08
2019-05-06T14:57:12.031Z,100566.66
2019-05-06T14:59:42.178Z,100561.36
2019-05-06T15:02:13.250Z,100560.39
2019-05-06T15:04:43.489Z,100563.14
2019-05-06T15:07:13.114Z,100562.61
2019-05-06T15:09:55.870Z,100560.69
2019-05-06T15:12:13.462Z,100568.56
2019-05-06T15:14:42.739Z,100565.08
2019-05-06T15:17:14.198Z,100568.05
2019-05-06T15:19:43.125Z,100566.16
2019-05-06T15:22:13.094Z,100571.66
2019-05-06T15:24:42.823Z,100566.77
2019-05-06T15:27:12.153Z,100565.34
2019-05-06T15:29:42.945Z,100564.72
2019-05-06T15:32:43.506Z,100558.78
2019-05-06T15:35:28.201Z,100563.64
2019-05-06T15:38:03.055Z,100561.33
2019-05-06T15:40:36.409Z,100557.86
2019-05-06T15:43:02.918Z,100553.52
2019-05-06T15:45:32.547Z,100559.82
2019-05-06T15:48:02.674Z,100553.48
2019-05-06T15:50:32.942Z,100559.33
2019-05-06T15:53:02.117Z,100562.02
2019-05-06T15:55:32.678Z,100560.03
2019-05-06T15:58:03.430Z,100557.36
2019-05-06T16:00:33.319Z,100542.80
2019-05-06T16:03:02.487Z,100567.00
2019-05-06T16:05:34.308Z,100566.91
2019-05-06T16:08:03.016Z,100562.48
2019-05-06T16:10:37.949Z,100568.58
2019-05-06T16:13:03.193Z,100571.48
2019-05-06T16:15:33.584Z,100563.82
2019-05-06T16:18:04.441Z,100562.17
2019-05-06T16:20:33.887Z,100563.73
2019-05-06T16:23:22.928Z,100567.53
2019-05-06T16:25:52.437Z,100568.58
2019-05-06T16:28:22.477Z,100563.31
2019-05-06T16:30:53.508Z,100573.16
2019-05-06T16:33:25.238Z,100565.08
2019-05-06T16:35:54.400Z,100572.31
2019-05-06T16:38:23.591Z,100561.55
2019-05-06T16:41:02.157Z,100566.01
2019-05-06T16:43:23.995Z,100570.36
2019-05-06T16:45:53.439Z,100567.30
2019-05-06T16:48:22.731Z,100566.37
2019-05-06T16:50:51.878Z,100563.59
2019-05-06T16:53:22.992Z,100564.42
2019-05-06T16:56:17.275Z,100563.38
2019-05-06T16:58:52.395Z,100565.44
2019-05-06T17:01:22.100Z,100557.69
2019-05-06T17:03:57.258Z,100565.56
2019-05-06T17:06:29.141Z,100564.34
2019-05-06T17:08:58.422Z,100569.95
2019-05-06T17:11:31.231Z,100560.62
2019-05-06T17:13:58.615Z,100563.34
2019-05-06T17:16:28.056Z,100559.39
2019-05-06T17:18:57.333Z,100561.33
2019-05-06T17:21:26.419Z,100558.75
2019-05-06T17:23:55.561Z,100558.42
2019-05-06T17:26:24.678Z,100567.77
2019-05-06T17:29:19.044Z,100565.48
2019-05-06T17:32:06.245Z,100559.88
2019-05-06T17:34:38.661Z,100573.14
2019-05-06T17:37:14.143Z,100561.33
2019-05-06T17:39:43.510Z,100568.38
2019-05-06T17:42:14.074Z,100567.77
2019-05-06T17:44:43.334Z,100566.92
2019-05-06T17:47:20.132Z,100566.19
2019-05-06T17:49:49.259Z,100562.48
2019-05-06T17:52:22.314Z,100570.45
2019-05-06T17:54:52.819Z,100572.73
2019-05-06T17:57:22.608Z,100574.91
2019-05-06T17:59:52.811Z,100572.09
2019-05-06T18:02:23.576Z,100581.93
2019-05-06T18:04:53.399Z,100580.80
2019-05-06T18:07:22.726Z,100585.42
2019-05-06T18:09:52.320Z,100585.42
2019-05-06T18:12:23.155Z,100582.54
2019-05-06T18:14:53.349Z,100582.52
2019-05-06T18:17:22.722Z,100583.97
2019-05-06T18:19:52.293Z,100582.82
2019-05-06T18:22:22.698Z,100588.91
2019-05-06T18:24:52.583Z,100581.88
2019-05-06T18:27:22.639Z,100583.20
2019-05-06T18:29:53.284Z,100590.45
2019-05-06T18:32:23.361Z,100597.58
2019-05-06T18:34:53.052Z,100596.94
2019-05-06T18:37:23.382Z,100597.24
2019-05-06T18:39:53.153Z,100604.06
2019-05-06T18:42:23.685Z,100601.77
2019-05-06T18:44:52.984Z,100604.23
2019-05-06T18:47:22.082Z,100604.42
2019-05-06T18:49:52.373Z,100607.62
2019-05-06T18:52:22.845Z,100602.34
2019-05-06T18:54:52.531Z,100605.12
2019-05-06T18:57:22.623Z,100613.47
2019-05-06T18:59:53.345Z,100609.70
2019-05-06T19:02:23.099Z,100606.47
2019-05-06T19:04:57.189Z,100610.14
2019-05-06T19:07:26.320Z,100610.30
2019-05-06T19:10:17.418Z,100610.77
2019-05-06T19:12:46.623Z,100611.87
2019-05-06T19:15:15.731Z,100617.52
2019-05-06T19:17:44.887Z,100616.12
2019-05-06T19:20:14.156Z,100616.94
2019-05-06T19:22:43.596Z,100620.01
2019-05-06T19:25:14.643Z,100621.48
2019-05-06T19:27:44.573Z,100627.32
2019-05-06T19:30:13.903Z,100623.42
2019-05-06T19:32:45.360Z,100623.50
2019-05-06T19:35:14.131Z,100629.95
2019-05-06T19:37:43.393Z,100631.62
2019-05-06T19:40:12.815Z,100627.68
2019-05-06T19:42:49.425Z,100630.09
2019-05-06T19:45:13.077Z,100629.41
2019-05-06T19:47:42.626Z,100628.06
2019-05-06T19:50:11.940Z,100632.70
2019-05-06T19:52:42.169Z,100636.61
2019-05-06T19:55:12.439Z,100633.23
2019-05-06T19:57:43.138Z,100633.50
2019-05-06T20:00:12.733Z,100633.31
2019-05-06T20:02:42.952Z,100635.99
2019-05-06T20:05:20.266Z,100638.33
2019-05-06T20:08:04.261Z,100632.39
2019-05-06T20:11:07.391Z,100631.66
2019-05-06T20:13:36.605Z,100632.65
2019-05-06T20:16:05.935Z,100629.20
2019-05-06T20:18:35.206Z,100626.09
2019-05-06T20:21:04.414Z,100629.90
2019-05-06T20:23:33.488Z,100635.05
2019-05-06T20:26:02.943Z,100634.46
2019-05-06T20:28:32.329Z,100631.88
2019-05-06T20:31:02.458Z,100627.17
2019-05-06T20:33:32.667Z,100630.45
2019-05-06T20:36:01.992Z,100625.05
2019-05-06T20:38:33.474Z,100621.03
2019-05-06T20:41:02.999Z,100621.09
2019-05-06T20:43:32.966Z,100619.66
2019-05-06T20:46:02.900Z,100619.53
2019-05-06T20:48:32.540Z,100613.89
2019-05-06T20:51:03.585Z,100616.31
2019-05-06T20:53:33.270Z,100624.29
2019-05-06T20:56:02.869Z,100623.27
2019-05-06T20:58:31.973Z,100623.33
2019-05-06T21:01:03.026Z,100619.36
2019-05-06T21:03:32.766Z,100620.05
2019-05-06T21:06:02.204Z,100613.91
2019-05-06T21:08:32.794Z,100610.59
2019-05-06T21:11:03.937Z,100609.63
2019-05-06T21:13:35.454Z,100607.77
2019-05-06T21:16:03.885Z,100602.47
2019-05-06T21:18:33.164Z,100605.06
2019-05-06T21:21:02.295Z,100602.20
2019-05-06T21:23:32.132Z,100599.29
2019-05-06T21:26:03.301Z,100604.58
2019-05-06T21:28:32.476Z,100608.64
2019-05-06T21:31:03.011Z,100607.45
2019-05-06T21:33:32.992Z,100597.84
2019-05-06T21:36:03.022Z,100604.89
2019-05-06T21:38:32.684Z,100602.17
2019-05-06T21:41:02.167Z,100603.55
2019-05-06T21:43:43.789Z,100602.93
2019-05-06T21:46:03.150Z,100605.50
2019-05-06T21:48:33.721Z,100605.96
2019-05-06T21:51:03.032Z,100602.13
2019-05-06T21:53:32.632Z,100607.55
2019-05-06T21:56:02.315Z,100601.27
2019-05-06T21:58:31.383Z,100598.10
2019-05-06T22:01:06.191Z,100603.37
2019-05-06T22:03:35.492Z,100599.75
2019-05-06T22:06:04.960Z,100602.73
2019-05-06T22:08:34.174Z,100596.41
2019-05-06T22:11:03.254Z,100601.14
2019-05-06T22:13:33.467Z,100601.20
2019-05-06T22:16:04.874Z,100596.92
2019-05-06T22:18:35.864Z,100604.93
2019-05-06T22:21:19.155Z,100604.66
2019-05-06T22:24:13.026Z,100601.66
2019-05-06T22:26:43.118Z,100600.03
2019-05-06T22:29:12.911Z,100603.05
2019-05-06T22:31:42.377Z,100604.41
2019-05-06T22:34:13.448Z,100597.78
2019-05-06T22:36:42.342Z,100600.80
2019-05-06T22:39:12.019Z,100597.45
2019-05-06T22:41:43.906Z,100600.47
2019-05-06T22:44:14.193Z,100602.97
2019-05-06T22:46:43.193Z,100594.13
2019-05-06T22:49:13.310Z,100603.81
2019-05-06T22:51:42.657Z,100604.14
2019-05-06T22:54:11.742Z,100600.28
2019-05-06T22:56:40.883Z,100597.13
2019-05-06T22:59:10.131Z,100601.78
2019-05-06T23:02:02.319Z,100598.80
2019-05-06T23:04:33.600Z,100599.25
2019-05-06T23:07:04.776Z,100601.92
2019-05-06T23:09:33.572Z,100599.91
2019-05-06T23:12:04.818Z,100597.05
2019-05-06T23:14:36.967Z,100598.98
2019-05-06T23:17:04.601Z,100594.14
2019-05-06T23:19:34.060Z,100594.26
2019-05-06T23:22:04.326Z,100589.08
2019-05-06T23:24:33.535Z,100591.91
2019-05-06T23:27:02.918Z,100597.91
2019-05-06T23:29:32.036Z,100592.22
2019-05-06T23:32:02.999Z,100589.89
2019-05-06T23:34:32.555Z,100592.70
2019-05-06T23:37:29.013Z,100594.72
2019-05-06T23:40:39.931Z,100591.84
2019-05-06T23:43:45.063Z,100598.65
2019-05-06T23:46:52.301Z,100595.97
2019-05-06T23:49:57.495Z,100587.92
2019-05-06T23:53:03.146Z,100592.00
2019-05-06T23:56:08.130Z,100584.41
2019-05-06T23:58:37.205Z,100589.72
